createdAt,value
2018-11-01T00:01:01.051Z,19.00
2018-11-01T00:03:30.633Z,18.90
2018-11-01T00:05:59.934Z,19.00
2018-11-01T00:08:29.528Z,18.90
2018-11-01T00:10:58.977Z,18.90
2018-11-01T00:13:28.663Z,18.90
2018-11-01T00:15:57.922Z,18.90
2018-11-01T00:18:27.183Z,18.90
2018-11-01T00:20:56.611Z,18.90
2018-11-01T00:23:26.069Z,18.90
2018-11-01T00:25:55.420Z,18.90
2018-11-01T00:28:24.571Z,18.90
2018-11-01T00:30:53.729Z,18.90
2018-11-01T00:33:22.971Z,18.90
2018-11-01T00:35:52.320Z,18.90
2018-11-01T00:38:21.639Z,18.90
2018-11-01T00:40:51.331Z,18.90
2018-11-01T00:43:20.774Z,18.90
2018-11-01T00:45:50.519Z,18.90
2018-11-01T00:48:19.785Z,18.90
2018-11-01T00:50:49.330Z,18.90
2018-11-01T00:53:18.681Z,18.80
2018-11-01T00:55:48.502Z,18.80
2018-11-01T00:58:18.006Z,18.80
2018-11-01T01:00:47.511Z,18.80
2018-11-01T01:03:16.941Z,18.80
2018-11-01T01:05:45.972Z,18.80
2018-11-01T01:08:15.343Z,18.80
2018-11-01T01:10:44.856Z,18.80
2018-11-01T01:13:14.441Z,18.80
2018-11-01T01:15:43.897Z,18.80
2018-11-01T01:18:13.034Z,18.80
2018-11-01T01:20:42.247Z,18.80
2018-11-01T01:23:11.898Z,18.80
2018-11-01T01:25:41.476Z,18.80
2018-11-01T01:28:10.639Z,18.80
2018-11-01T01:30:40.015Z,18.80
2018-11-01T01:33:09.417Z,18.80
2018-11-01T01:35:38.774Z,18.80
2018-11-01T01:38:07.991Z,18.80
2018-11-01T01:40:37.388Z,18.80
2018-11-01T01:43:06.459Z,18.80
2018-11-01T01:45:35.736Z,18.80
2018-11-01T01:48:05.245Z,18.80
2018-11-01T01:50:34.276Z,18.80
2018-11-01T01:53:03.700Z,18.70
2018-11-01T01:55:32.932Z,18.70
2018-11-01T01:58:01.963Z,18.70
2018-11-01T02:00:31.463Z,18.70
2018-11-01T02:03:00.661Z,18.70
2018-11-01T02:05:30.167Z,18.70
2018-11-01T02:07:59.487Z,18.70
2018-11-01T02:10:29.260Z,18.70
2018-11-01T02:12:58.346Z,18.70
2018-11-01T02:15:27.886Z,18.70
2018-11-01T02:17:57.492Z,18.70
2018-11-01T02:20:27.012Z,18.70
2018-11-01T02:22:56.293Z,18.70
2018-11-01T02:25:26.121Z,18.70
2018-11-01T02:28:02.597Z,18.70
2018-11-01T02:30:32.267Z,18.70
2018-11-01T02:33:01.360Z,18.70
2018-11-01T02:35:30.948Z,18.70
2018-11-01T02:38:00.187Z,18.70
2018-11-01T02:40:29.791Z,18.70
2018-11-01T02:42:59.129Z,18.70
2018-11-01T02:45:28.908Z,18.70
2018-11-01T02:47:58.275Z,18.70
2018-11-01T02:50:27.684Z,18.70
2018-11-01T02:52:56.900Z,18.70
2018-11-01T02:55:26.008Z,18.70
2018-11-01T02:57:55.444Z,18.70
2018-11-01T03:00:24.544Z,18.70
2018-11-01T03:02:53.778Z,18.70
2018-11-01T03:05:23.014Z,18.70
2018-11-01T03:07:52.181Z,18.70
2018-11-01T03:10:21.274Z,18.70
2018-11-01T03:12:50.851Z,18.70
2018-11-01T03:15:20.544Z,18.60
2018-11-01T03:17:49.677Z,18.60
2018-11-01T03:20:19.290Z,18.60
2018-11-01T03:22:48.923Z,18.60
2018-11-01T03:25:18.518Z,18.60
2018-11-01T03:27:48.082Z,18.60
2018-11-01T03:30:17.455Z,18.60
2018-11-01T03:32:46.543Z,18.60
2018-11-01T03:35:16.046Z,18.60
2018-11-01T03:37:45.152Z,18.60
2018-11-01T03:40:14.535Z,18.60
2018-11-01T03:42:43.857Z,18.60
2018-11-01T03:45:13.804Z,18.60
2018-11-01T03:47:43.922Z,18.60
2018-11-01T03:50:13.249Z,18.60
2018-11-01T03:52:43.698Z,18.60
2018-11-01T03:55:13.073Z,18.60
2018-11-01T03:57:42.840Z,18.60
2018-11-01T04:00:14.916Z,18.60
2018-11-01T04:02:45.642Z,18.60
2018-11-01T04:05:14.907Z,18.60
2018-11-01T04:07:44.082Z,18.60
2018-11-01T04:10:14.081Z,18.60
2018-11-01T04:12:43.934Z,18.60
2018-11-01T04:15:14.403Z,18.60
2018-11-01T04:17:43.649Z,18.60
2018-11-01T04:20:13.423Z,18.60
2018-11-01T04:22:43.051Z,18.60
2018-11-01T04:25:12.737Z,18.60
2018-11-01T04:27:41.918Z,18.60
2018-11-01T04:30:11.397Z,18.60
2018-11-01T04:32:40.766Z,18.60
2018-11-01T04:35:10.200Z,18.60
2018-11-01T04:37:39.581Z,18.60
2018-11-01T04:40:09.577Z,18.70
2018-11-01T04:42:38.835Z,18.60
2018-11-01T04:45:10.851Z,18.60
2018-11-01T04:47:41.161Z,18.60
2018-11-01T04:50:11.725Z,18.60
2018-11-01T04:52:41.805Z,18.60
2018-11-01T04:55:10.998Z,18.60
2018-11-01T04:57:40.705Z,18.70
2018-11-01T05:00:12.350Z,18.60
2018-11-01T05:02:42.024Z,18.60
2018-11-01T05:05:11.364Z,18.60
2018-11-01T05:07:40.815Z,18.60
2018-11-01T05:10:11.210Z,18.60
2018-11-01T05:12:40.437Z,18.70
2018-11-01T05:15:10.234Z,18.60
2018-11-01T05:17:39.764Z,18.60
2018-11-01T05:20:10.176Z,18.60
2018-11-01T05:22:39.563Z,18.60
2018-11-01T05:25:09.616Z,18.60
2018-11-01T05:27:39.098Z,18.60
2018-11-01T05:30:10.415Z,18.60
2018-11-01T05:32:39.860Z,18.60
2018-11-01T05:35:09.534Z,18.60
2018-11-01T05:37:38.840Z,18.60
2018-11-01T05:40:09.469Z,18.60
2018-11-01T05:42:38.972Z,18.60
2018-11-01T05:45:08.736Z,18.60
2018-11-01T05:47:38.504Z,18.60
2018-11-01T05:50:08.628Z,18.60
2018-11-01T05:52:38.124Z,18.60
2018-11-01T05:55:08.531Z,18.60
2018-11-01T05:57:38.000Z,18.60
2018-11-01T06:00:10.094Z,18.60
2018-11-01T06:02:41.479Z,18.60
2018-11-01T06:05:11.016Z,18.60
2018-11-01T06:08:43.969Z,18.60
2018-11-01T06:11:13.141Z,18.60
2018-11-01T06:13:42.579Z,18.60
2018-11-01T06:16:11.929Z,18.60
2018-11-01T06:18:41.180Z,18.60
2018-11-01T06:21:10.704Z,18.50
2018-11-01T06:23:39.977Z,18.60
2018-11-01T06:26:09.273Z,18.50
2018-11-01T06:28:38.751Z,18.50
2018-11-01T06:31:08.188Z,18.50
2018-11-01T06:33:37.438Z,18.50
2018-11-01T06:36:09.056Z,18.50
2018-11-01T06:38:38.264Z,18.50
2018-11-01T06:41:07.825Z,18.50
2018-11-01T06:43:37.229Z,18.50
2018-11-01T06:46:06.695Z,18.50
2018-11-01T06:48:35.978Z,18.50
2018-11-01T06:51:05.789Z,18.50
2018-11-01T06:53:35.096Z,18.50
2018-11-01T06:56:05.025Z,18.50
2018-11-01T06:58:35.027Z,18.50
2018-11-01T07:01:04.271Z,18.50
2018-11-01T07:03:33.781Z,18.50
2018-11-01T07:06:03.351Z,18.50
2018-11-01T07:08:32.491Z,18.50
2018-11-01T07:11:01.831Z,18.50
2018-11-01T07:13:31.431Z,18.50
2018-11-01T07:16:00.752Z,18.50
2018-11-01T07:18:30.184Z,18.50
2018-11-01T07:20:59.862Z,18.50
2018-11-01T07:23:29.272Z,18.50
2018-11-01T07:25:58.826Z,18.50
2018-11-01T07:28:28.324Z,18.50
2018-11-01T07:30:57.414Z,18.50
2018-11-01T07:33:26.758Z,18.50
2018-11-01T07:35:56.158Z,18.50
2018-11-01T07:38:25.435Z,18.50
2018-11-01T07:40:54.757Z,18.50
2018-11-01T07:43:24.437Z,18.50
2018-11-01T07:45:53.731Z,18.50
2018-11-01T07:48:23.011Z,18.50
2018-11-01T07:50:52.490Z,18.50
2018-11-01T07:53:21.832Z,18.50
2018-11-01T07:55:51.371Z,18.50
2018-11-01T07:58:20.892Z,18.50
2018-11-01T08:00:50.310Z,18.50
2018-11-01T08:03:20.009Z,18.50
2018-11-01T08:05:49.877Z,18.50
2018-11-01T08:08:19.621Z,18.50
2018-11-01T08:10:48.996Z,18.50
2018-11-01T08:13:18.786Z,18.50
2018-11-01T08:15:48.748Z,18.50
2018-11-01T08:18:18.467Z,18.50
2018-11-01T08:20:48.018Z,18.50
2018-11-01T08:23:17.359Z,18.50
2018-11-01T08:25:46.975Z,18.50
2018-11-01T08:28:16.654Z,18.50
2018-11-01T08:30:45.986Z,18.50
2018-11-01T08:33:15.469Z,18.50
2018-11-01T08:35:44.959Z,18.50
2018-11-01T08:38:14.082Z,18.50
2018-11-01T08:40:43.548Z,18.50
2018-11-01T08:43:12.772Z,18.50
2018-11-01T08:45:41.981Z,18.50
2018-11-01T08:48:11.373Z,18.50
2018-11-01T08:50:40.703Z,18.50
2018-11-01T08:53:09.961Z,18.50
2018-11-01T08:55:39.389Z,18.50
2018-11-01T08:58:08.893Z,18.50
2018-11-01T09:00:38.404Z,18.50
2018-11-01T09:03:07.920Z,18.50
2018-11-01T09:05:37.324Z,18.50
2018-11-01T09:08:06.614Z,18.50
2018-11-01T09:10:36.020Z,18.50
2018-11-01T09:13:05.305Z,18.50
2018-11-01T09:15:34.617Z,18.50
2018-11-01T09:18:04.015Z,18.50
2018-11-01T09:20:33.402Z,18.50
2018-11-01T09:23:02.653Z,18.50
2018-11-01T09:25:32.528Z,18.50
2018-11-01T09:28:01.704Z,18.50
2018-11-01T09:30:30.884Z,18.50
2018-11-01T09:33:00.327Z,18.50
2018-11-01T09:35:29.750Z,18.50
2018-11-01T09:37:59.099Z,18.50
2018-11-01T09:40:28.621Z,18.50
2018-11-01T09:42:58.038Z,18.50
2018-11-01T09:45:27.212Z,18.50
2018-11-01T09:47:56.566Z,18.50
2018-11-01T09:50:26.038Z,18.50
2018-11-01T09:52:55.534Z,18.50
2018-11-01T09:55:25.043Z,18.50
2018-11-01T09:57:54.213Z,18.50
2018-11-01T10:00:23.269Z,18.50
2018-11-01T10:02:53.036Z,18.50
2018-11-01T10:05:23.287Z,18.50
2018-11-01T10:07:52.550Z,18.60
2018-11-01T10:10:22.080Z,18.60
2018-11-01T10:12:51.485Z,18.60
2018-11-01T10:15:21.008Z,18.60
2018-11-01T10:17:50.670Z,18.60
2018-11-01T10:20:19.898Z,18.60
2018-11-01T10:22:49.532Z,18.60
2018-11-01T10:25:19.030Z,18.60
2018-11-01T10:27:48.785Z,18.60
2018-11-01T10:30:19.486Z,18.60
2018-11-01T10:32:49.230Z,18.60
2018-11-01T10:35:19.212Z,18.60
2018-11-01T10:37:48.481Z,18.60
2018-11-01T10:40:19.277Z,18.60
2018-11-01T10:42:48.713Z,18.60
2018-11-01T10:45:18.179Z,18.60
2018-11-01T10:47:47.967Z,18.60
2018-11-01T10:50:19.279Z,18.60
2018-11-01T10:52:49.139Z,18.60
2018-11-01T10:55:18.547Z,18.60
2018-11-01T10:57:47.944Z,18.60
2018-11-01T11:00:22.431Z,18.60
2018-11-01T11:02:52.612Z,18.60
2018-11-01T11:05:22.658Z,18.60
2018-11-01T11:07:52.194Z,18.70
2018-11-01T11:10:21.708Z,18.70
2018-11-01T11:12:51.038Z,18.70
2018-11-01T11:15:20.548Z,18.70
2018-11-01T11:17:49.736Z,18.70
2018-11-01T11:20:19.100Z,18.70
2018-11-01T11:22:49.002Z,18.70
2018-11-01T11:25:18.440Z,18.70
2018-11-01T11:27:47.838Z,18.70
2018-11-01T11:30:17.551Z,18.70
2018-11-01T11:32:46.678Z,18.70
2018-11-01T11:35:16.009Z,18.70
2018-11-01T11:37:45.456Z,18.70
2018-11-01T11:40:14.570Z,18.70
2018-11-01T11:42:43.775Z,18.70
2018-11-01T11:45:13.521Z,18.70
2018-11-01T11:47:43.189Z,18.80
2018-11-01T11:50:13.407Z,18.80
2018-11-01T11:52:43.945Z,18.80
2018-11-01T11:55:13.008Z,18.80
2018-11-01T11:57:42.293Z,18.80
2018-11-01T12:00:14.492Z,18.80
2018-11-01T12:02:44.170Z,18.80
2018-11-01T12:05:13.506Z,18.80
2018-11-01T12:07:42.863Z,18.90
2018-11-01T12:10:12.787Z,18.90
2018-11-01T12:12:42.231Z,18.90
2018-11-01T12:15:11.575Z,18.90
2018-11-01T12:17:40.864Z,18.90
2018-11-01T12:20:12.378Z,18.90
2018-11-01T12:22:41.627Z,19.00
2018-11-01T12:25:11.352Z,19.00
2018-11-01T12:27:40.691Z,19.00
2018-11-01T12:30:11.154Z,19.00
2018-11-01T12:32:40.213Z,19.00
2018-11-01T12:35:10.317Z,19.00
2018-11-01T12:37:39.857Z,19.10
2018-11-01T12:40:10.769Z,19.10
2018-11-01T12:42:40.445Z,19.10
2018-11-01T12:47:46.088Z,19.10
2018-11-01T12:50:15.462Z,19.10
2018-11-01T12:52:44.751Z,19.10
2018-11-01T12:55:14.635Z,19.10
2018-11-01T12:57:43.862Z,19.10
2018-11-01T13:00:13.778Z,19.10
2018-11-01T13:02:43.593Z,19.10
2018-11-01T13:05:12.871Z,19.20
2018-11-01T13:07:42.002Z,19.20
2018-11-01T13:10:11.270Z,19.20
2018-11-01T13:12:40.656Z,19.20
2018-11-01T13:15:11.327Z,19.20
2018-11-01T13:17:41.065Z,19.20
2018-11-01T13:20:10.823Z,19.20
2018-11-01T13:22:40.466Z,19.20
2018-11-01T13:25:11.167Z,19.20
2018-11-01T13:27:40.567Z,19.20
2018-11-01T13:30:11.822Z,19.20
2018-11-01T13:32:41.426Z,19.20
2018-11-01T13:35:10.681Z,19.30
2018-11-01T13:37:39.932Z,19.30
2018-11-01T13:40:10.262Z,19.30
2018-11-01T13:42:39.351Z,19.30
2018-11-01T13:45:08.856Z,19.30
2018-11-01T13:47:38.218Z,19.30
2018-11-01T13:50:08.561Z,19.30
2018-11-01T13:52:38.018Z,19.30
2018-11-01T13:55:08.249Z,19.30
2018-11-01T13:57:37.416Z,19.30
2018-11-01T14:00:07.124Z,19.30
2018-11-01T14:02:38.707Z,19.30
2018-11-01T14:05:09.971Z,19.30
2018-11-01T14:07:39.525Z,19.30
2018-11-01T14:10:10.311Z,19.30
2018-11-01T14:12:39.712Z,19.30
2018-11-01T14:15:10.256Z,19.30
2018-11-01T14:17:39.309Z,19.30
2018-11-01T14:20:09.783Z,19.30
2018-11-01T14:22:39.251Z,19.30
2018-11-01T14:25:09.585Z,19.20
2018-11-01T14:27:39.073Z,19.20
2018-11-01T14:30:12.622Z,19.20
2018-11-01T14:32:42.017Z,19.20
2018-11-01T14:35:11.635Z,19.20
2018-11-01T14:37:43.271Z,19.20
2018-11-01T14:40:13.688Z,19.20
2018-11-01T14:42:42.893Z,19.20
2018-11-01T14:45:12.261Z,19.20
2018-11-01T14:47:41.781Z,19.20
2018-11-01T14:50:11.585Z,19.30
2018-11-01T14:52:41.073Z,19.30
2018-11-01T14:55:11.628Z,19.30
2018-11-01T14:57:40.656Z,19.30
2018-11-01T15:00:09.678Z,19.30
2018-11-01T15:02:38.973Z,19.30
2018-11-01T15:05:08.787Z,19.30
2018-11-01T15:07:38.427Z,19.30
2018-11-01T15:10:09.207Z,19.30
2018-11-01T15:12:38.347Z,19.30
2018-11-01T15:15:08.772Z,19.30
2018-11-01T15:17:38.302Z,19.30
2018-11-01T15:20:08.139Z,19.30
2018-11-01T15:22:37.609Z,19.20
2018-11-01T15:25:07.325Z,19.20
2018-11-01T15:27:37.235Z,19.20
2018-11-01T15:30:09.538Z,19.20
2018-11-01T15:32:38.702Z,19.20
2018-11-01T15:35:08.244Z,19.20
2018-11-01T15:37:37.790Z,19.20
2018-11-01T15:40:09.012Z,19.20
2018-11-01T15:42:38.597Z,19.20
2018-11-01T15:45:09.463Z,19.20
2018-11-01T15:47:39.295Z,19.30
2018-11-01T15:50:09.321Z,19.30
2018-11-01T15:52:38.561Z,19.30
2018-11-01T15:55:08.490Z,19.30
2018-11-01T15:57:37.946Z,19.30
2018-11-01T16:00:08.909Z,19.30
2018-11-01T16:02:39.370Z,19.30
2018-11-01T16:05:08.905Z,19.30
2018-11-01T16:07:38.194Z,19.30
2018-11-01T16:10:08.573Z,19.30
2018-11-01T16:12:38.162Z,19.30
2018-11-01T16:15:09.436Z,19.30
2018-11-01T16:17:38.696Z,19.30
2018-11-01T16:20:08.351Z,19.30
2018-11-01T16:22:37.895Z,19.30
2018-11-01T16:25:07.293Z,19.30
2018-11-01T16:27:36.793Z,19.30
2018-11-01T16:30:06.691Z,19.30
2018-11-01T16:32:36.234Z,19.30
2018-11-01T16:35:05.872Z,19.40
2018-11-01T16:37:35.200Z,19.40
2018-11-01T16:40:05.342Z,19.40
2018-11-01T16:42:35.217Z,19.40
2018-11-01T16:45:05.080Z,19.40
2018-11-01T16:47:40.433Z,19.40
2018-11-01T16:50:09.972Z,19.40
2018-11-01T16:52:40.214Z,19.40
2018-11-01T16:55:09.692Z,19.40
2018-11-01T16:57:39.137Z,19.40
2018-11-01T17:00:10.401Z,19.40
2018-11-01T17:02:40.643Z,19.40
2018-11-01T17:05:10.711Z,19.50
2018-11-01T17:07:40.163Z,19.50
2018-11-01T17:10:11.388Z,19.50
2018-11-01T17:12:40.572Z,19.50
2018-11-01T17:15:11.707Z,19.50
2018-11-01T17:17:41.551Z,19.50
2018-11-01T17:20:10.945Z,19.50
2018-11-01T17:22:40.143Z,19.50
2018-11-01T17:25:09.765Z,19.50
2018-11-01T17:27:38.833Z,19.50
2018-11-01T17:30:09.085Z,19.50
2018-11-01T17:32:43.301Z,19.60
2018-11-01T17:35:12.664Z,19.60
2018-11-01T17:37:42.138Z,19.60
2018-11-01T17:40:11.763Z,19.60
2018-11-01T17:42:41.203Z,19.60
2018-11-01T17:45:10.898Z,19.60
2018-11-01T17:47:40.320Z,19.60
2018-11-01T17:50:11.491Z,19.60
2018-11-01T17:52:41.242Z,19.70
2018-11-01T17:55:10.583Z,19.70
2018-11-01T17:57:39.984Z,19.70
2018-11-01T18:00:11.976Z,19.70
2018-11-01T18:02:41.748Z,19.70
2018-11-01T18:05:11.507Z,19.70
2018-11-01T18:07:41.362Z,19.70
2018-11-01T18:10:11.944Z,19.70
2018-11-01T18:12:41.345Z,19.70
2018-11-01T18:15:10.867Z,19.80
2018-11-01T18:17:40.191Z,19.70
2018-11-01T18:20:10.686Z,19.70
2018-11-01T18:22:39.954Z,19.80
2018-11-01T18:25:10.296Z,19.80
2018-11-01T18:27:39.779Z,19.80
2018-11-01T18:30:11.326Z,19.80
2018-11-01T18:32:41.191Z,19.80
2018-11-01T18:35:11.409Z,19.80
2018-11-01T18:37:41.690Z,19.80
2018-11-01T18:40:13.553Z,19.80
2018-11-01T18:42:43.272Z,19.80
2018-11-01T18:45:13.944Z,19.90
2018-11-01T18:47:43.733Z,19.80
2018-11-01T18:50:15.991Z,19.90
2018-11-01T18:52:45.349Z,19.80
2018-11-01T18:55:14.590Z,19.90
2018-11-01T18:57:44.266Z,19.90
2018-11-01T19:00:14.804Z,19.90
2018-11-01T19:02:44.186Z,19.90
2018-11-01T19:05:13.598Z,19.90
2018-11-01T19:07:43.380Z,19.90
2018-11-01T19:10:13.300Z,19.90
2018-11-01T19:12:43.038Z,19.90
2018-11-01T19:15:13.406Z,19.90
2018-11-01T19:17:42.955Z,19.90
2018-11-01T19:20:12.814Z,19.90
2018-11-01T19:22:42.096Z,19.90
2018-11-01T19:25:11.753Z,19.90
2018-11-01T19:27:41.244Z,19.90
2018-11-01T19:30:11.972Z,19.90
2018-11-01T19:32:41.148Z,19.90
2018-11-01T19:35:11.357Z,19.90
2018-11-01T19:37:40.661Z,19.90
2018-11-01T19:40:13.156Z,19.90
2018-11-01T19:42:42.737Z,19.90
2018-11-01T19:45:12.016Z,19.90
2018-11-01T19:47:41.000Z,19.90
2018-11-01T19:50:12.428Z,19.90
2018-11-01T19:52:41.664Z,19.90
2018-11-01T19:55:10.878Z,19.90
2018-11-01T19:57:40.739Z,19.90
2018-11-01T20:00:12.557Z,19.90
2018-11-01T20:02:41.998Z,19.80
2018-11-01T20:05:11.741Z,19.80
2018-11-01T20:07:41.364Z,19.80
2018-11-01T20:10:11.862Z,19.80
2018-11-01T20:12:41.120Z,19.80
2018-11-01T20:15:10.473Z,19.80
2018-11-01T20:17:39.844Z,19.80
2018-11-01T20:20:10.892Z,19.80
2018-11-01T20:22:40.753Z,19.80
2018-11-01T20:25:09.925Z,19.70
2018-11-01T20:27:39.343Z,19.80
2018-11-01T20:30:12.059Z,19.80
2018-11-01T20:32:42.177Z,19.80
2018-11-01T20:35:13.135Z,19.80
2018-11-01T20:37:42.744Z,19.70
2018-11-01T20:40:11.994Z,19.70
2018-11-01T20:42:41.795Z,19.70
2018-11-01T20:45:12.203Z,19.70
2018-11-01T20:47:41.639Z,19.70
2018-11-01T20:50:12.098Z,19.70
2018-11-01T20:52:41.340Z,19.70
2018-11-01T20:55:10.434Z,19.70
2018-11-01T20:57:40.000Z,19.70
2018-11-01T21:00:11.090Z,19.70
2018-11-01T21:02:40.518Z,19.60
2018-11-01T21:05:10.145Z,19.60
2018-11-01T21:07:39.293Z,19.60
2018-11-01T21:10:09.567Z,19.60
2018-11-01T21:12:39.520Z,19.60
2018-11-01T21:15:10.154Z,19.60
2018-11-01T21:17:39.292Z,19.60
2018-11-01T21:20:08.948Z,19.60
2018-11-01T21:22:39.425Z,19.60
2018-11-01T21:25:09.521Z,19.60
2018-11-01T21:27:39.146Z,19.50
2018-11-01T21:30:08.840Z,19.50
2018-11-01T21:32:38.039Z,19.50
2018-11-01T21:35:08.108Z,19.50
2018-11-01T21:37:37.664Z,19.50
2018-11-01T21:40:08.434Z,19.50
2018-11-01T21:42:38.038Z,19.50
2018-11-01T21:45:09.629Z,19.50
2018-11-01T21:47:39.277Z,19.50
2018-11-01T21:50:08.338Z,19.50
2018-11-01T21:52:37.859Z,19.50
2018-11-01T21:55:07.767Z,19.50
2018-11-01T21:57:36.969Z,19.50
2018-11-01T22:00:09.062Z,19.40
2018-11-01T22:02:38.906Z,19.50
2018-11-01T22:05:08.698Z,19.40
2018-11-01T22:07:38.308Z,19.40
2018-11-01T22:10:07.907Z,19.40
2018-11-01T22:12:37.817Z,19.40
2018-11-01T22:15:08.908Z,19.40
2018-11-01T22:17:38.361Z,19.40
2018-11-01T22:20:08.400Z,19.40
2018-11-01T22:22:38.161Z,19.40
2018-11-01T22:25:08.134Z,19.40
2018-11-01T22:27:37.637Z,19.40
2018-11-01T22:30:08.470Z,19.30
2018-11-01T22:32:37.881Z,19.30
2018-11-01T22:35:07.762Z,19.30
2018-11-01T22:37:37.580Z,19.30
2018-11-01T22:40:07.051Z,19.30
2018-11-01T22:42:36.549Z,19.30
2018-11-01T22:45:06.805Z,19.30
2018-11-01T22:47:36.141Z,19.30
2018-11-01T22:50:06.102Z,19.30
2018-11-01T22:52:35.615Z,19.30
2018-11-01T22:55:05.505Z,19.30
2018-11-01T22:57:34.889Z,19.30
2018-11-01T23:00:04.585Z,19.30
2018-11-01T23:02:33.765Z,19.20
2018-11-01T23:05:03.161Z,19.20
2018-11-01T23:07:32.663Z,19.30
2018-11-01T23:10:01.825Z,19.30
2018-11-01T23:12:30.926Z,19.20
2018-11-01T23:15:00.434Z,19.30
2018-11-01T23:17:29.851Z,19.20
2018-11-01T23:19:59.056Z,19.20
2018-11-01T23:22:28.477Z,19.20
2018-11-01T23:24:57.880Z,19.20
2018-11-01T23:27:27.062Z,19.20
2018-11-01T23:29:56.554Z,19.20
2018-11-01T23:32:25.766Z,19.20
2018-11-01T23:34:54.936Z,19.20
2018-11-01T23:37:29.661Z,19.10
2018-11-01T23:40:04.061Z,19.10
2018-11-01T23:42:38.401Z,19.20
2018-11-01T23:45:12.815Z,19.10
2018-11-01T23:47:47.477Z,19.20
2018-11-01T23:51:20.106Z,19.10
2018-11-01T23:53:50.785Z,19.10
2018-11-01T23:56:20.710Z,19.10
2018-11-01T23:58:50.014Z,19.10
